createdAt,value
2022-10-09T00:03:45.967Z,10.92
2022-10-09T00:09:17.670Z,10.82
2022-10-09T00:14:49.404Z,10.80
2022-10-09T00:20:21.053Z,10.73
2022-10-09T00:25:52.939Z,10.68
2022-10-09T00:31:24.581Z,10.63
2022-10-09T00:42:26.097Z,10.56
2022-10-09T00:47:57.473Z,10.51
2022-10-09T00:53:29.341Z,10.44
2022-10-09T00:59:00.772Z,10.43
2022-10-09T01:04:32.349Z,10.40
2022-10-09T01:10:03.957Z,10.36
2022-10-09T01:21:05.048Z,10.26
2022-10-09T01:26:36.624Z,10.22
2022-10-09T01:32:08.368Z,10.20
2022-10-09T01:37:40.115Z,10.15
2022-10-09T01:43:11.770Z,10.12
2022-10-09T01:48:43.392Z,10.04
2022-10-09T01:54:15.293Z,10.02
2022-10-09T01:59:47.039Z,9.95
2022-10-09T02:05:18.961Z,9.94
2022-10-09T02:10:51.151Z,9.92
2022-10-09T02:16:22.880Z,9.85
2022-10-09T02:21:54.724Z,9.81
2022-10-09T02:32:55.060Z,9.73
2022-10-09T02:43:56.425Z,9.63
2022-10-09T02:49:28.257Z,9.54
2022-10-09T02:54:59.921Z,9.53
2022-10-09T03:11:30.708Z,9.37
2022-10-09T03:17:02.404Z,9.40
2022-10-09T03:22:34.055Z,9.35
2022-10-09T03:28:06.018Z,9.32
2022-10-09T03:33:37.661Z,9.26
2022-10-09T03:39:09.424Z,9.25
2022-10-09T03:44:41.173Z,9.19
2022-10-09T03:50:12.951Z,9.21
2022-10-09T03:55:46.535Z,9.19
2022-10-09T04:06:47.906Z,9.12
2022-10-09T04:12:20.020Z,9.09
2022-10-09T04:17:51.622Z,9.04
2022-10-09T04:23:23.400Z,9.04
2022-10-09T04:28:55.371Z,9.01
2022-10-09T04:34:27.156Z,8.98
2022-10-09T04:39:59.067Z,8.92
2022-10-09T04:45:31.597Z,8.86
2022-10-09T05:02:02.340Z,8.75
2022-10-09T05:07:33.981Z,8.70
2022-10-09T05:13:06.083Z,8.67
2022-10-09T05:24:10.379Z,8.57
2022-10-09T05:35:09.384Z,8.46
2022-10-09T05:40:41.136Z,8.44
2022-10-09T05:46:12.902Z,8.43
2022-10-09T05:51:44.547Z,8.46
2022-10-09T05:57:16.469Z,8.52
2022-10-09T06:02:48.306Z,8.63
2022-10-09T06:08:19.901Z,8.70
2022-10-09T06:13:51.948Z,8.90
2022-10-09T06:19:23.871Z,8.94
2022-10-09T06:24:55.567Z,9.12
2022-10-09T06:30:27.391Z,9.23
2022-10-09T06:36:08.536Z,9.36
2022-10-09T06:41:30.907Z,9.49
2022-10-09T06:47:02.500Z,9.68
2022-10-09T06:52:34.533Z,9.85
2022-10-09T06:58:06.193Z,9.95
2022-10-09T07:03:37.925Z,10.20
2022-10-09T07:09:10.012Z,10.29
2022-10-09T07:14:41.739Z,10.46
2022-10-09T07:20:13.589Z,10.51
2022-10-09T07:22:27.144Z,10.59
2022-10-09T07:27:56.853Z,10.68
2022-10-09T07:38:58.071Z,10.81
2022-10-09T07:44:29.862Z,11.03
2022-10-09T07:50:01.683Z,11.13
2022-10-09T07:55:33.566Z,11.29
2022-10-09T08:01:05.310Z,11.44
2022-10-09T08:06:37.128Z,11.75
2022-10-09T08:17:39.820Z,12.22
2022-10-09T08:23:11.637Z,12.37
2022-10-09T08:28:43.654Z,12.60
2022-10-09T08:34:15.301Z,12.70
2022-10-09T08:39:46.716Z,12.91
2022-10-09T08:45:18.444Z,13.12
2022-10-09T08:50:49.915Z,13.43
2022-10-09T08:56:21.704Z,13.51
2022-10-09T09:01:53.192Z,13.60
2022-10-09T09:07:24.958Z,13.67
2022-10-09T09:12:56.912Z,13.96
2022-10-09T09:18:28.919Z,14.02
2022-10-09T09:24:00.446Z,14.26
2022-10-09T09:29:31.874Z,14.43
2022-10-09T09:35:03.486Z,14.64
2022-10-09T09:40:37.123Z,14.76
2022-10-09T09:46:06.960Z,15.05
2022-10-09T09:48:31.018Z,0.00
2022-10-09T09:54:02.314Z,15.33
2022-10-09T09:59:33.832Z,15.51
2022-10-09T10:05:05.729Z,15.68
2022-10-09T10:10:37.381Z,15.79
2022-10-09T10:16:08.884Z,15.96
2022-10-09T10:21:40.708Z,16.06
2022-10-09T10:27:12.518Z,16.26
2022-10-09T10:32:44.259Z,16.31
2022-10-09T10:38:16.113Z,16.43
2022-10-09T10:43:47.884Z,16.50
2022-10-09T10:49:19.662Z,16.67
2022-10-09T10:54:51.477Z,16.72
2022-10-09T11:00:23.281Z,16.86
2022-10-09T11:05:55.087Z,16.91
2022-10-09T11:16:56.304Z,17.06
2022-10-09T11:22:28.132Z,17.17
2022-10-09T11:28:00.213Z,17.23
2022-10-09T11:33:31.769Z,17.29
2022-10-09T11:39:03.187Z,17.38
2022-10-09T11:44:34.987Z,17.44
2022-10-09T11:50:06.490Z,17.44
2022-10-09T11:52:30.495Z,17.52
2022-10-09T11:58:01.948Z,17.50
2022-10-09T12:03:33.693Z,17.55
2022-10-09T12:09:05.264Z,17.57
2022-10-09T12:14:37.063Z,17.55
2022-10-09T12:20:08.907Z,17.50
2022-10-09T12:25:40.642Z,17.58
2022-10-09T12:31:12.710Z,17.65
2022-10-09T12:36:44.189Z,17.74
2022-10-09T12:42:15.451Z,17.76
2022-10-09T12:47:46.691Z,17.68
2022-10-09T12:58:47.679Z,17.75
2022-10-09T13:04:19.491Z,17.74
2022-10-09T13:09:50.935Z,17.78
2022-10-09T13:15:22.352Z,17.71
2022-10-09T13:20:54.125Z,17.57
2022-10-09T13:26:25.742Z,17.52
2022-10-09T13:31:57.314Z,17.61
2022-10-09T13:37:29.083Z,17.55
2022-10-09T13:43:00.905Z,17.47
2022-10-09T13:48:32.673Z,17.44
2022-10-09T13:54:04.616Z,17.52
2022-10-09T13:59:36.081Z,17.34
2022-10-09T14:05:07.691Z,17.35
2022-10-09T14:10:39.306Z,17.23
2022-10-09T14:16:11.943Z,17.22
2022-10-09T14:21:43.681Z,17.23
2022-10-09T14:27:15.443Z,17.19
2022-10-09T14:32:49.505Z,17.17
2022-10-09T14:38:20.713Z,17.12
2022-10-09T14:43:52.168Z,17.02
2022-10-09T14:49:23.953Z,17.02
2022-10-09T14:54:55.554Z,16.89
2022-10-09T15:00:26.735Z,16.85
2022-10-09T15:05:58.224Z,16.82
2022-10-09T15:11:30.082Z,16.75
2022-10-09T15:17:01.837Z,16.69
2022-10-09T15:22:32.977Z,16.59
2022-10-09T15:28:04.421Z,16.44
2022-10-09T15:33:35.860Z,16.36
2022-10-09T15:39:07.525Z,16.23
2022-10-09T15:44:38.867Z,16.13
2022-10-09T15:50:10.674Z,15.96
2022-10-09T15:55:42.499Z,15.92
2022-10-09T16:01:14.410Z,15.85
2022-10-09T16:06:45.680Z,15.82
2022-10-09T16:12:17.094Z,15.68
2022-10-09T16:17:48.993Z,15.64
2022-10-09T16:23:20.814Z,15.54
2022-10-09T16:28:52.453Z,15.43
2022-10-09T16:34:24.452Z,15.29
2022-10-09T16:39:55.746Z,15.26
2022-10-09T16:50:58.858Z,15.13
2022-10-09T16:56:30.615Z,15.05
2022-10-09T17:02:02.361Z,14.98
2022-10-09T17:07:33.979Z,14.85
2022-10-09T17:13:05.446Z,14.81
2022-10-09T17:18:37.239Z,14.75
2022-10-09T17:24:09.094Z,14.70
2022-10-09T17:29:40.835Z,14.58
2022-10-09T17:35:12.604Z,14.48
2022-10-09T17:40:44.152Z,14.41
2022-10-09T17:46:15.447Z,14.33
2022-10-09T17:51:46.795Z,14.23
2022-10-09T17:57:18.262Z,14.08
2022-10-09T18:02:49.659Z,14.02
2022-10-09T18:08:21.558Z,13.91
2022-10-09T18:13:53.313Z,13.84
2022-10-09T18:19:24.924Z,13.70
2022-10-09T18:24:56.716Z,13.61
2022-10-09T18:30:28.301Z,13.47
2022-10-09T18:35:59.968Z,13.38
2022-10-09T18:41:32.430Z,13.23
2022-10-09T18:49:25.512Z,13.10
2022-10-09T18:54:57.371Z,13.05
2022-10-09T19:00:28.862Z,12.99
2022-10-09T19:06:00.403Z,12.95
2022-10-09T19:11:32.152Z,12.89
2022-10-09T19:17:03.531Z,12.85
2022-10-09T19:22:35.044Z,12.76
2022-10-09T19:28:06.930Z,12.71
2022-10-09T19:33:38.382Z,12.63
2022-10-09T19:39:09.759Z,12.60
2022-10-09T19:44:41.228Z,12.51
2022-10-09T19:50:13.125Z,12.43
2022-10-09T19:55:44.554Z,12.37
2022-10-09T20:01:15.880Z,12.33
2022-10-09T20:06:47.477Z,12.29
2022-10-09T20:17:49.486Z,12.23
2022-10-09T20:23:20.699Z,12.23
2022-10-09T20:28:52.315Z,12.22
2022-10-09T20:39:52.802Z,12.19
2022-10-09T20:45:24.211Z,12.16
2022-10-09T20:50:55.562Z,12.13
2022-10-09T20:56:26.802Z,12.15
2022-10-09T21:01:58.229Z,12.18
2022-10-09T21:07:29.365Z,12.19
2022-10-09T21:13:00.804Z,12.19
2022-10-09T21:18:32.422Z,12.20
2022-10-09T21:24:03.642Z,12.19
2022-10-09T21:29:34.946Z,12.19
2022-10-09T21:35:06.231Z,12.18
2022-10-09T21:40:37.604Z,12.18
2022-10-09T21:46:08.859Z,12.13
2022-10-09T21:51:40.276Z,12.13
2022-10-09T21:57:11.980Z,12.13
2022-10-09T22:02:43.182Z,12.08
2022-10-09T22:08:14.348Z,12.06
2022-10-09T22:13:45.721Z,12.03
2022-10-09T22:19:17.113Z,11.99
2022-10-09T22:24:48.687Z,11.95
2022-10-09T22:30:20.001Z,11.89
2022-10-09T22:41:21.057Z,11.74
2022-10-09T22:46:52.743Z,11.65
2022-10-09T22:52:24.108Z,11.60
2022-10-09T22:57:55.378Z,11.53
2022-10-09T23:03:27.057Z,11.47
2022-10-09T23:14:28.116Z,11.33
2022-10-09T23:19:59.848Z,11.25
2022-10-09T23:25:31.421Z,11.22
2022-10-09T23:31:02.679Z,11.10
2022-10-09T23:36:34.183Z,11.09
2022-10-09T23:38:57.630Z,11.05
2022-10-09T23:44:29.084Z,11.09
2022-10-09T23:50:00.954Z,11.22
2022-10-09T23:55:32.988Z,11.30
